Time;durP1;ratioP1;P1;durP2;ratioP2;P2;SDS_P1;SDS_P2;PMS_P1;PMS_P2;Temp;Humidity;BMP_temperature;BMP_pressure;BME280_temperature;BME280_humidity;BME280_pressure;Samples;Min_cycle;Max_cycle;Signal;HPM_P1;HPM_P2
2023/08/27 00:00:19;;;;;;;0.00;0.00;;;;;;;;;;1731260;28;20668;-77
2023/08/27 00:01:11;;;;;;;0.00;0.00;;;;;;;;;;1727953;28;20243;-77
2023/08/27 00:02:03;;;;;;;0.00;0.00;;;;;;;;;;1727376;28;20250;-77
2023/08/27 00:02:55;;;;;;;0.00;0.00;;;;;;;;;;1727152;28;20204;-77
2023/08/27 00:03:46;;;;;;;0.00;0.00;;;;;;;;;;1729773;28;20253;-77
2023/08/27 00:04:38;;;;;;;0.00;0.00;;;;;;;;;;1727942;28;20197;-77
2023/08/27 00:05:30;;;;;;;0.00;0.00;;;;;;;;;;1725133;28;20204;-77
2023/08/27 00:06:21;;;;;;;0.00;0.00;;;;;;;;;;1726980;28;20212;-77
2023/08/27 00:07:13;;;;;;;0.00;0.00;;;;;;;;;;1730111;28;20238;-77
2023/08/27 00:08:04;;;;;;;0.00;0.00;;;;;;;;;;1730714;28;20518;-77
2023/08/27 00:08:57;;;;;;;0.00;0.00;;;;;;;;;;1730001;28;20298;-77
2023/08/27 00:09:49;;;;;;;0.00;0.00;;;;;;;;;;1727710;28;20358;-77
2023/08/27 00:10:40;;;;;;;0.00;0.00;;;;;;;;;;1724845;28;20259;-77
2023/08/27 00:11:31;;;;;;;0.00;0.00;;;;;;;;;;1727591;28;20395;-77
2023/08/27 00:12:23;;;;;;;0.00;0.00;;;;;;;;;;1731239;28;20286;-77
2023/08/27 00:13:14;;;;;;;0.00;0.00;;;;;;;;;;1729353;28;20370;-77
2023/08/27 00:14:05;;;;;;;0.00;0.00;;;;;;;;;;1731716;28;20589;-77
2023/08/27 00:14:57;;;;;;;0.00;0.00;;;;;;;;;;1731578;28;20216;-77
2023/08/27 00:15:49;;;;;;;0.00;0.00;;;;;;;;;;1731780;28;20326;-77
2023/08/27 00:16:41;;;;;;;0.00;0.00;;;;;;;;;;1732120;28;20269;-77
2023/08/27 00:17:32;;;;;;;0.00;0.00;;;;;;;;;;1727028;28;20208;-77
2023/08/27 00:18:23;;;;;;;0.00;0.00;;;;;;;;;;1726828;28;20211;-77
2023/08/27 00:19:15;;;;;;;0.00;0.00;;;;;;;;;;1728179;28;20348;-77
2023/08/27 00:20:09;;;;;;;0.00;0.00;;;;;;;;;;1731193;28;20203;-77
2023/08/27 00:21:00;;;;;;;0.00;0.00;;;;;;;;;;1723871;28;20236;-78
2023/08/27 00:21:52;;;;;;;0.00;0.00;;;;;;;;;;1727131;28;20616;-78
2023/08/27 00:22:43;;;;;;;0.00;0.00;;;;;;;;;;1725924;28;20371;-78
2023/08/27 00:23:34;;;;;;;0.00;0.00;;;;;;;;;;1730120;28;20257;-78
2023/08/27 00:24:28;;;;;;;0.00;0.00;;;;;;;;;;1730142;28;20211;-78
2023/08/27 00:25:19;;;;;;;0.00;0.00;;;;;;;;;;1727647;28;20299;-77
2023/08/27 00:26:11;;;;;;;0.00;0.00;;;;;;;;;;1725321;28;20638;-77
2023/08/27 00:27:03;;;;;;;0.00;0.00;;;;;;;;;;1728889;28;20246;-77
2023/08/27 00:27:54;;;;;;;0.00;0.00;;;;;;;;;;1732231;28;20207;-77
2023/08/27 00:28:46;;;;;;;0.00;0.00;;;;;;;;;;1729089;28;20203;-77
2023/08/27 00:29:37;;;;;;;0.00;0.00;;;;;;;;;;1728157;28;20200;-77
2023/08/27 00:30:28;;;;;;;0.00;0.00;;;;;;;;;;1725249;28;20231;-77
2023/08/27 00:31:20;;;;;;;0.00;0.00;;;;;;;;;;1725457;28;20629;-78
2023/08/27 00:32:11;;;;;;;0.00;0.00;;;;;;;;;;1731057;28;20767;-78
2023/08/27 00:33:03;;;;;;;0.00;0.00;;;;;;;;;;1731057;28;20242;-77
2023/08/27 00:33:55;;;;;;;0.00;0.00;;;;;;;;;;1730698;28;20207;-77
2023/08/27 00:34:46;;;;;;;0.00;0.00;;;;;;;;;;1731815;28;20604;-77
2023/08/27 00:35:38;;;;;;;0.00;0.00;;;;;;;;;;1731514;28;20235;-78
2023/08/27 00:36:29;;;;;;;0.00;0.00;;;;;;;;;;1733354;28;20214;-78
2023/08/27 00:37:21;;;;;;;0.00;0.00;;;;;;;;;;1734690;28;20210;-78
2023/08/27 00:38:13;;;;;;;0.00;0.00;;;;;;;;;;1734393;28;20516;-78
2023/08/27 00:39:05;;;;;;;0.00;0.00;;;;;;;;;;1733098;28;20249;-78
2023/08/27 00:39:57;;;;;;;0.00;0.00;;;;;;;;;;1732554;28;20633;-78
2023/08/27 00:40:49;;;;;;;0.00;0.00;;;;;;;;;;1732635;28;20675;-78
2023/08/27 00:41:40;;;;;;;0.00;0.00;;;;;;;;;;1734962;28;20231;-78
2023/08/27 00:42:31;;;;;;;0.00;0.00;;;;;;;;;;1731033;28;20208;-78
2023/08/27 00:43:24;;;;;;;0.00;0.00;;;;;;;;;;1727576;28;20285;-78
2023/08/27 00:44:15;;;;;;;0.00;0.00;;;;;;;;;;1733463;28;20214;-78
2023/08/27 00:45:08;;;;;;;0.00;0.00;;;;;;;;;;1732068;28;20553;-78
2023/08/27 00:46:02;;;;;;;0.00;0.00;;;;;;;;;;1725758;28;20243;-78
2023/08/27 00:46:53;;;;;;;0.00;0.00;;;;;;;;;;1727787;28;20574;-78
2023/08/27 00:47:45;;;;;;;0.00;0.00;;;;;;;;;;1728106;28;20199;-78
2023/08/27 00:48:36;;;;;;;0.00;0.00;;;;;;;;;;1728020;28;20299;-78
2023/08/27 00:49:27;;;;;;;0.00;0.00;;;;;;;;;;1729156;28;20270;-78
2023/08/27 00:50:20;;;;;;;0.00;0.00;;;;;;;;;;1729381;28;20210;-78
2023/08/27 00:51:11;;;;;;;0.00;0.00;;;;;;;;;;1732364;28;20203;-78
2023/08/27 00:52:03;;;;;;;0.00;0.00;;;;;;;;;;1731620;28;20684;-78
2023/08/27 00:52:54;;;;;;;0.00;0.00;;;;;;;;;;1733451;28;20262;-78
2023/08/27 00:53:45;;;;;;;0.00;0.00;;;;;;;;;;1733086;28;20286;-78
2023/08/27 00:54:38;;;;;;;0.00;0.00;;;;;;;;;;1732428;28;20206;-78
2023/08/27 00:55:30;;;;;;;0.00;0.00;;;;;;;;;;1732052;28;20700;-79
2023/08/27 00:56:23;;;;;;;0.00;0.00;;;;;;;;;;1732731;28;20203;-79
2023/08/27 00:57:15;;;;;;;0.00;0.00;;;;;;;;;;1732306;28;20646;-78
2023/08/27 00:58:07;;;;;;;0.00;0.00;;;;;;;;;;1730957;28;20223;-78
2023/08/27 00:59:01;;;;;;;0.00;0.00;;;;;;;;;;1730445;28;20227;-78
2023/08/27 00:59:53;;;;;;;0.00;0.00;;;;;;;;;;1727991;28;20204;-78
2023/08/27 01:00:44;;;;;;;0.00;0.00;;;;;;;;;;1720872;28;20271;-78
2023/08/27 01:01:36;;;;;;;0.00;0.00;;;;;;;;;;1726178;28;20898;-79
2023/08/27 01:02:28;;;;;;;0.10;0.10;;;;;;;;;;1727104;28;20622;-78
2023/08/27 01:03:19;;;;;;;0.00;0.00;;;;;;;;;;1727889;28;20232;-78
2023/08/27 01:04:11;;;;;;;0.00;0.00;;;;;;;;;;1729643;28;20587;-77
2023/08/27 01:05:05;;;;;;;0.00;0.00;;;;;;;;;;1727408;28;20722;-77
2023/08/27 01:05:58;;;;;;;0.00;0.00;;;;;;;;;;1727047;28;20240;-78
2023/08/27 01:06:49;;;;;;;0.00;0.00;;;;;;;;;;1726443;28;20251;-78
2023/08/27 01:07:44;;;;;;;0.00;0.00;;;;;;;;;;1732931;28;20203;-78
2023/08/27 01:08:41;;;;;;;0.00;0.00;;;;;;;;;;1728863;28;20623;-78
2023/08/27 01:09:33;;;;;;;0.00;0.00;;;;;;;;;;1732176;28;20570;-78
2023/08/27 01:10:31;;;;;;;0.00;0.00;;;;;;;;;;1727766;28;20205;-78
2023/08/27 01:11:27;;;;;;;0.00;0.00;;;;;;;;;;1728779;28;20204;-78
2023/08/27 01:12:22;;;;;;;0.00;0.00;;;;;;;;;;1730713;28;20619;-78
2023/08/27 01:13:15;;;;;;;0.00;0.00;;;;;;;;;;1729562;28;20204;-77
2023/08/27 01:14:08;;;;;;;0.00;0.00;;;;;;;;;;1730206;28;20246;-77
2023/08/27 01:15:03;;;;;;;0.00;0.00;;;;;;;;;;1726293;28;20200;-77
2023/08/27 01:15:59;;;;;;;0.00;0.00;;;;;;;;;;1725486;28;20335;-79
2023/08/27 01:16:51;;;;;;;0.00;0.00;;;;;;;;;;1726971;28;20220;-78
2023/08/27 01:17:42;;;;;;;0.00;0.00;;;;;;;;;;1733383;28;20285;-78
2023/08/27 01:18:35;;;;;;;0.00;0.00;;;;;;;;;;1734658;28;20610;-78
2023/08/27 01:19:26;;;;;;;0.00;0.00;;;;;;;;;;1728071;28;20239;-78
2023/08/27 01:20:17;;;;;;;0.00;0.00;;;;;;;;;;1730320;28;20633;-79
2023/08/27 01:21:19;;;;;;;0.00;0.00;;;;;;;;;;1730153;28;20338;-78
2023/08/27 01:22:10;;;;;;;0.00;0.00;;;;;;;;;;1726022;28;20640;-78
2023/08/27 01:23:01;;;;;;;0.00;0.00;;;;;;;;;;1726472;28;20291;-78
2023/08/27 01:23:53;;;;;;;0.00;0.00;;;;;;;;;;1730109;28;20204;-79
2023/08/27 01:24:45;;;;;;;0.00;0.00;;;;;;;;;;1727128;28;20298;-78
2023/08/27 01:25:41;;;;;;;0.00;0.00;;;;;;;;;;1730851;28;20237;-78
2023/08/27 01:26:36;;;;;;;0.00;0.00;;;;;;;;;;1729906;28;20649;-79
2023/08/27 01:27:29;;;;;;;0.00;0.00;;;;;;;;;;1732990;28;20203;-78
2023/08/27 01:28:24;;;;;;;0.00;0.00;;;;;;;;;;1729354;28;20207;-78
2023/08/27 01:29:21;;;;;;;0.00;0.00;;;;;;;;;;1728592;28;20218;-78
2023/08/27 01:30:15;;;;;;;0.00;0.00;;;;;;;;;;1733915;28;20587;-78
2023/08/27 01:31:09;;;;;;;0.00;0.00;;;;;;;;;;1730574;28;20263;-78
2023/08/27 01:32:04;;;;;;;0.00;0.00;;;;;;;;;;1730085;28;20199;-78
2023/08/27 01:33:00;;;;;;;0.00;0.00;;;;;;;;;;1730630;28;20192;-78
2023/08/27 01:33:54;;;;;;;0.00;0.00;;;;;;;;;;1726714;28;20574;-78
2023/08/27 01:34:47;;;;;;;0.00;0.00;;;;;;;;;;1727085;28;20292;-78
2023/08/27 01:35:39;;;;;;;0.00;0.00;;;;;;;;;;1730478;28;20255;-78
2023/08/27 01:36:34;;;;;;;0.00;0.00;;;;;;;;;;1726650;28;20204;-78
2023/08/27 01:37:26;;;;;;;0.00;0.00;;;;;;;;;;1732294;28;20206;-78
2023/08/27 01:38:18;;;;;;;0.00;0.00;;;;;;;;;;1729272;28;20298;-78
2023/08/27 01:39:13;;;;;;;0.00;0.00;;;;;;;;;;1730044;28;20643;-78
2023/08/27 01:40:05;;;;;;;0.00;0.00;;;;;;;;;;1729187;28;20197;-78
2023/08/27 01:40:57;;;;;;;0.00;0.00;;;;;;;;;;1731516;28;20327;-78
2023/08/27 01:41:48;;;;;;;0.00;0.00;;;;;;;;;;1731179;28;20351;-78
2023/08/27 01:42:40;;;;;;;0.00;0.00;;;;;;;;;;1727649;28;20231;-78
2023/08/27 01:43:32;;;;;;;0.00;0.00;;;;;;;;;;1728088;28;20695;-78
2023/08/27 01:44:23;;;;;;;0.00;0.00;;;;;;;;;;1728985;28;20204;-79
2023/08/27 01:45:15;;;;;;;0.00;0.00;;;;;;;;;;1730495;28;20632;-78
2023/08/27 01:46:06;;;;;;;0.00;0.00;;;;;;;;;;1730963;28;20227;-78
2023/08/27 01:46:57;;;;;;;0.00;0.00;;;;;;;;;;1733092;28;20204;-79
2023/08/27 01:47:49;;;;;;;0.00;0.00;;;;;;;;;;1726402;28;20199;-79
2023/08/27 01:48:40;;;;;;;0.00;0.00;;;;;;;;;;1733436;28;20223;-79
2023/08/27 01:49:32;;;;;;;0.00;0.00;;;;;;;;;;1728300;28;20205;-79
2023/08/27 01:50:23;;;;;;;0.00;0.00;;;;;;;;;;1729184;28;20715;-78
2023/08/27 01:51:15;;;;;;;0.00;0.00;;;;;;;;;;1730841;28;20249;-78
2023/08/27 01:52:08;;;;;;;0.00;0.00;;;;;;;;;;1727115;28;20586;-78
2023/08/27 01:52:59;;;;;;;0.00;0.00;;;;;;;;;;1726808;28;20673;-79
2023/08/27 01:53:51;;;;;;;0.00;0.00;;;;;;;;;;1727425;28;20207;-79
2023/08/27 01:54:42;;;;;;;0.00;0.00;;;;;;;;;;1732220;28;20235;-78
2023/08/27 01:55:34;;;;;;;0.00;0.00;;;;;;;;;;1730922;28;20652;-77
2023/08/27 01:56:25;;;;;;;0.00;0.00;;;;;;;;;;1731148;28;20689;-77
2023/08/27 01:57:17;;;;;;;0.00;0.00;;;;;;;;;;1731779;28;20200;-77
2023/08/27 01:58:08;;;;;;;0.00;0.00;;;;;;;;;;1731510;28;20630;-77
2023/08/27 01:58:59;;;;;;;0.00;0.00;;;;;;;;;;1731965;28;20204;-77
2023/08/27 01:59:51;;;;;;;0.00;0.00;;;;;;;;;;1731569;28;20199;-78
2023/08/27 02:00:43;;;;;;;0.00;0.00;;;;;;;;;;1727667;28;20723;-79
2023/08/27 02:01:34;;;;;;;0.00;0.00;;;;;;;;;;1729730;28;20701;-79
2023/08/27 02:02:26;;;;;;;0.00;0.00;;;;;;;;;;1728614;28;20199;-77
2023/08/27 02:03:17;;;;;;;0.00;0.00;;;;;;;;;;1730198;28;20659;-77
2023/08/27 02:04:08;;;;;;;0.00;0.00;;;;;;;;;;1731318;28;20583;-77
2023/08/27 02:05:00;;;;;;;0.00;0.00;;;;;;;;;;1732366;28;20211;-78
2023/08/27 02:05:51;;;;;;;0.00;0.00;;;;;;;;;;1730878;28;20327;-78
2023/08/27 02:06:43;;;;;;;0.00;0.00;;;;;;;;;;1731553;28;20593;-77
2023/08/27 02:07:36;;;;;;;0.00;0.00;;;;;;;;;;1729677;28;20290;-78
2023/08/27 02:08:28;;;;;;;0.00;0.00;;;;;;;;;;1731314;28;20204;-78
2023/08/27 02:09:19;;;;;;;0.00;0.00;;;;;;;;;;1732537;28;20254;-78
2023/08/27 02:10:11;;;;;;;0.00;0.00;;;;;;;;;;1733061;28;20223;-79
2023/08/27 02:11:03;;;;;;;0.00;0.00;;;;;;;;;;1732494;28;20223;-78
2023/08/27 02:11:54;;;;;;;0.00;0.00;;;;;;;;;;1736296;28;20358;-78
2023/08/27 02:12:45;;;;;;;0.00;0.00;;;;;;;;;;1734422;28;20230;-78
2023/08/27 02:13:37;;;;;;;0.00;0.00;;;;;;;;;;1734481;28;20199;-78
2023/08/27 02:14:28;;;;;;;0.00;0.00;;;;;;;;;;1732488;28;20605;-78
2023/08/27 02:15:19;;;;;;;0.00;0.00;;;;;;;;;;1732322;28;20204;-78
2023/08/27 02:16:11;;;;;;;0.00;0.00;;;;;;;;;;1732944;28;20192;-78
2023/08/27 02:17:03;;;;;;;0.00;0.00;;;;;;;;;;1733428;28;20231;-78
2023/08/27 02:17:54;;;;;;;0.00;0.00;;;;;;;;;;1731457;28;20705;-78
2023/08/27 02:18:46;;;;;;;0.00;0.00;;;;;;;;;;1733159;28;20195;-78
2023/08/27 02:19:37;;;;;;;0.00;0.00;;;;;;;;;;1732546;28;20227;-78
2023/08/27 02:20:29;;;;;;;0.00;0.00;;;;;;;;;;1732571;28;20291;-77
2023/08/27 02:21:20;;;;;;;0.00;0.00;;;;;;;;;;1732506;28;20302;-78
2023/08/27 02:22:11;;;;;;;0.00;0.00;;;;;;;;;;1735779;28;20306;-78
2023/08/27 02:23:05;;;;;;;0.00;0.00;;;;;;;;;;1732538;28;20295;-78
2023/08/27 02:23:56;;;;;;;0.00;0.00;;;;;;;;;;1734267;28;20600;-78
2023/08/27 02:24:47;;;;;;;0.00;0.00;;;;;;;;;;1735189;28;20195;-78
2023/08/27 02:25:39;;;;;;;0.00;0.00;;;;;;;;;;1733214;28;20227;-79
2023/08/27 02:26:30;;;;;;;0.00;0.00;;;;;;;;;;1733865;28;20709;-78
2023/08/27 02:27:21;;;;;;;0.00;0.00;;;;;;;;;;1731654;28;20218;-78
2023/08/27 02:28:13;;;;;;;0.00;0.00;;;;;;;;;;1733775;28;20195;-78
2023/08/27 02:29:04;;;;;;;0.00;0.00;;;;;;;;;;1733913;28;20233;-78
2023/08/27 02:29:55;;;;;;;0.00;0.00;;;;;;;;;;1734121;28;20200;-78
2023/08/27 02:30:55;;;;;;;0.00;0.00;;;;;;;;;;1733063;28;20235;-78
2023/08/27 02:31:46;;;;;;;0.00;0.00;;;;;;;;;;1733631;28;20327;-78
2023/08/27 02:32:37;;;;;;;0.00;0.00;;;;;;;;;;1734351;28;20211;-78
2023/08/27 02:33:29;;;;;;;0.00;0.00;;;;;;;;;;1735055;28;20607;-78
2023/08/27 02:34:20;;;;;;;0.00;0.00;;;;;;;;;;1733366;28;20211;-78
2023/08/27 02:35:13;;;;;;;0.00;0.00;;;;;;;;;;1732784;28;20294;-78
2023/08/27 02:36:04;;;;;;;0.00;0.00;;;;;;;;;;1733648;28;20231;-78
2023/08/27 02:36:56;;;;;;;0.00;0.00;;;;;;;;;;1733274;28;20285;-78
2023/08/27 02:37:48;;;;;;;0.00;0.00;;;;;;;;;;1732437;28;20203;-78
2023/08/27 02:38:41;;;;;;;0.00;0.00;;;;;;;;;;1733320;28;20350;-78
2023/08/27 02:39:34;;;;;;;0.00;0.00;;;;;;;;;;1732494;28;20618;-79
2023/08/27 02:40:25;;;;;;;0.00;0.00;;;;;;;;;;1734070;28;22197;-79
2023/08/27 02:41:17;;;;;;;0.00;0.00;;;;;;;;;;1735095;28;20203;-79
2023/08/27 02:42:08;;;;;;;0.00;0.00;;;;;;;;;;1732487;28;20322;-78
2023/08/27 02:42:59;;;;;;;0.00;0.00;;;;;;;;;;1733425;28;20203;-78
2023/08/27 02:43:51;;;;;;;0.00;0.00;;;;;;;;;;1733808;28;20519;-78
2023/08/27 02:44:42;;;;;;;0.00;0.00;;;;;;;;;;1732826;28;20627;-78
2023/08/27 02:45:33;;;;;;;0.00;0.00;;;;;;;;;;1733110;28;20231;-78
2023/08/27 02:46:25;;;;;;;0.00;0.00;;;;;;;;;;1733148;28;20199;-78
2023/08/27 02:47:16;;;;;;;0.00;0.00;;;;;;;;;;1730886;28;20747;-78
2023/08/27 02:48:08;;;;;;;0.00;0.00;;;;;;;;;;1736019;28;20286;-78
2023/08/27 02:48:59;;;;;;;0.00;0.00;;;;;;;;;;1733636;28;20246;-78
2023/08/27 02:49:51;;;;;;;0.00;0.00;;;;;;;;;;1734172;28;20227;-78
2023/08/27 02:50:42;;;;;;;0.00;0.00;;;;;;;;;;1734040;28;20266;-79
2023/08/27 02:51:33;;;;;;;0.00;0.00;;;;;;;;;;1734511;28;20692;-79
2023/08/27 02:52:25;;;;;;;0.00;0.00;;;;;;;;;;1731867;28;20243;-79
2023/08/27 02:53:16;;;;;;;0.00;0.00;;;;;;;;;;1732952;28;20254;-78
2023/08/27 02:54:08;;;;;;;0.00;0.00;;;;;;;;;;1733485;28;20227;-78
2023/08/27 02:55:00;;;;;;;0.00;0.00;;;;;;;;;;1733456;28;20624;-78
2023/08/27 02:55:51;;;;;;;0.00;0.00;;;;;;;;;;1732657;28;20267;-80
2023/08/27 02:56:43;;;;;;;0.00;0.00;;;;;;;;;;1733540;28;20286;-78
2023/08/27 02:57:36;;;;;;;0.00;0.00;;;;;;;;;;1731216;28;20242;-78
2023/08/27 02:58:27;;;;;;;0.00;0.00;;;;;;;;;;1735195;28;20207;-78
2023/08/27 02:59:19;;;;;;;0.00;0.00;;;;;;;;;;1733625;28;20219;-79
2023/08/27 03:00:11;;;;;;;0.00;0.00;;;;;;;;;;1732295;28;20223;-79
2023/08/27 03:01:02;;;;;;;0.00;0.00;;;;;;;;;;1730992;28;20231;-78
2023/08/27 03:01:54;;;;;;;0.00;0.00;;;;;;;;;;1734611;28;20380;-78
2023/08/27 03:02:45;;;;;;;0.00;0.00;;;;;;;;;;1734255;28;20230;-78
2023/08/27 03:03:37;;;;;;;0.00;0.00;;;;;;;;;;1736750;28;20553;-78
2023/08/27 03:04:28;;;;;;;0.00;0.00;;;;;;;;;;1734435;28;20205;-78
2023/08/27 03:05:20;;;;;;;0.00;0.00;;;;;;;;;;1733227;28;20199;-79
2023/08/27 03:06:11;;;;;;;0.00;0.00;;;;;;;;;;1732914;28;20282;-78
2023/08/27 03:07:03;;;;;;;0.00;0.00;;;;;;;;;;1733953;28;20651;-80
2023/08/27 03:07:54;;;;;;;0.00;0.00;;;;;;;;;;1733998;28;20265;-79
2023/08/27 03:08:46;;;;;;;0.00;0.00;;;;;;;;;;1734107;28;20199;-79
2023/08/27 03:09:39;;;;;;;0.00;0.00;;;;;;;;;;1732929;28;20196;-78
2023/08/27 03:10:30;;;;;;;0.00;0.00;;;;;;;;;;1730849;28;20204;-78
2023/08/27 03:11:21;;;;;;;0.00;0.00;;;;;;;;;;1733393;28;20230;-79
2023/08/27 03:12:13;;;;;;;0.00;0.00;;;;;;;;;;1734232;28;20195;-79
2023/08/27 03:13:04;;;;;;;0.00;0.00;;;;;;;;;;1736612;28;20240;-78
2023/08/27 03:13:56;;;;;;;0.00;0.00;;;;;;;;;;1736084;28;20195;-79
2023/08/27 03:14:47;;;;;;;0.00;0.00;;;;;;;;;;1734521;28;20363;-78
2023/08/27 03:15:38;;;;;;;0.00;0.00;;;;;;;;;;1731618;28;20234;-78
2023/08/27 03:16:30;;;;;;;0.00;0.00;;;;;;;;;;1734088;28;20199;-77
2023/08/27 03:17:22;;;;;;;0.00;0.00;;;;;;;;;;1734691;28;20302;-78
2023/08/27 03:18:14;;;;;;;0.00;0.00;;;;;;;;;;1733864;28;20222;-80
2023/08/27 03:19:05;;;;;;;0.00;0.00;;;;;;;;;;1734319;28;20644;-80
2023/08/27 03:19:56;;;;;;;0.00;0.00;;;;;;;;;;1733476;28;20647;-79
2023/08/27 03:20:48;;;;;;;0.00;0.00;;;;;;;;;;1731990;28;20235;-79
2023/08/27 03:21:39;;;;;;;0.00;0.00;;;;;;;;;;1733999;28;20200;-79
2023/08/27 03:22:31;;;;;;;0.00;0.00;;;;;;;;;;1733335;28;20227;-79
2023/08/27 03:23:22;;;;;;;0.00;0.00;;;;;;;;;;1732875;28;20645;-78
2023/08/27 03:24:13;;;;;;;0.00;0.00;;;;;;;;;;1737806;28;20217;-77
2023/08/27 03:25:07;;;;;;;0.00;0.00;;;;;;;;;;1733364;28;20628;-77
2023/08/27 03:25:58;;;;;;;0.00;0.00;;;;;;;;;;1731705;28;20254;-78
2023/08/27 03:26:49;;;;;;;0.00;0.00;;;;;;;;;;1733728;28;20199;-79
2023/08/27 03:27:41;;;;;;;0.00;0.00;;;;;;;;;;1733420;28;20360;-78
2023/08/27 03:28:32;;;;;;;0.00;0.00;;;;;;;;;;1736485;28;20311;-79
2023/08/27 03:29:25;;;;;;;0.00;0.00;;;;;;;;;;1733284;28;20286;-79
2023/08/27 03:30:16;;;;;;;0.00;0.00;;;;;;;;;;1732179;28;20211;-78
2023/08/27 03:31:07;;;;;;;0.00;0.00;;;;;;;;;;1733664;28;20208;-78
2023/08/27 03:31:59;;;;;;;0.00;0.00;;;;;;;;;;1732637;28;20199;-77
2023/08/27 03:32:50;;;;;;;0.00;0.00;;;;;;;;;;1732492;28;20906;-78
2023/08/27 03:33:41;;;;;;;0.00;0.00;;;;;;;;;;1733802;28;20477;-78
2023/08/27 03:34:33;;;;;;;0.00;0.00;;;;;;;;;;1733359;28;20204;-78
2023/08/27 03:35:24;;;;;;;0.00;0.00;;;;;;;;;;1733536;28;20716;-78
2023/08/27 03:36:16;;;;;;;0.00;0.00;;;;;;;;;;1734725;28;20207;-78
2023/08/27 03:37:07;;;;;;;0.00;0.00;;;;;;;;;;1735724;28;20627;-78
2023/08/27 03:37:58;;;;;;;0.00;0.00;;;;;;;;;;1733693;28;20213;-78
2023/08/27 03:38:51;;;;;;;0.00;0.00;;;;;;;;;;1735492;28;20218;-78
2023/08/27 03:39:42;;;;;;;0.00;0.00;;;;;;;;;;1735604;28;20649;-78
2023/08/27 03:40:35;;;;;;;0.00;0.00;;;;;;;;;;1733877;28;20262;-77
2023/08/27 03:41:26;;;;;;;0.00;0.00;;;;;;;;;;1732630;28;20266;-77
2023/08/27 03:42:17;;;;;;;0.00;0.00;;;;;;;;;;1733473;28;20254;-77
2023/08/27 03:43:09;;;;;;;0.00;0.00;;;;;;;;;;1733422;28;20638;-78
2023/08/27 03:44:00;;;;;;;0.00;0.00;;;;;;;;;;1731953;28;20238;-78
2023/08/27 03:44:52;;;;;;;0.00;0.00;;;;;;;;;;1732963;28;20235;-78
2023/08/27 03:45:44;;;;;;;0.00;0.00;;;;;;;;;;1732260;28;20274;-78
2023/08/27 03:46:35;;;;;;;0.00;0.00;;;;;;;;;;1732651;28;20211;-78
2023/08/27 03:47:27;;;;;;;0.00;0.00;;;;;;;;;;1733278;28;20207;-77
2023/08/27 03:48:18;;;;;;;0.00;0.00;;;;;;;;;;1732442;28;20247;-77
2023/08/27 03:49:10;;;;;;;0.00;0.00;;;;;;;;;;1733115;28;20261;-77
2023/08/27 03:50:04;;;;;;;0.00;0.00;;;;;;;;;;1731038;28;20710;-77
2023/08/27 03:50:56;;;;;;;0.00;0.00;;;;;;;;;;1731001;28;20231;-78
2023/08/27 03:51:47;;;;;;;0.00;0.00;;;;;;;;;;1733666;28;20369;-78
2023/08/27 03:52:39;;;;;;;0.00;0.00;;;;;;;;;;1732005;28;20204;-78
2023/08/27 03:53:31;;;;;;;0.00;0.00;;;;;;;;;;1732778;28;20243;-78
2023/08/27 03:54:23;;;;;;;0.00;0.00;;;;;;;;;;1732850;28;20592;-78
2023/08/27 03:55:14;;;;;;;0.00;0.00;;;;;;;;;;1731052;28;20278;-78
2023/08/27 03:56:07;;;;;;;0.00;0.00;;;;;;;;;;1733268;28;20239;-78
2023/08/27 03:56:58;;;;;;;0.00;0.00;;;;;;;;;;1732823;28;20238;-78
2023/08/27 03:57:50;;;;;;;0.00;0.00;;;;;;;;;;1732456;28;20286;-78
2023/08/27 03:58:43;;;;;;;0.00;0.00;;;;;;;;;;1732772;28;20663;-78
2023/08/27 03:59:34;;;;;;;0.00;0.00;;;;;;;;;;1732473;28;20200;-78
2023/08/27 04:00:25;;;;;;;0.00;0.00;;;;;;;;;;1731128;28;20202;-78
2023/08/27 04:01:17;;;;;;;0.00;0.00;;;;;;;;;;1732240;28;20203;-78
2023/08/27 04:02:08;;;;;;;0.00;0.00;;;;;;;;;;1733428;28;20238;-78
2023/08/27 04:03:00;;;;;;;0.00;0.00;;;;;;;;;;1732221;28;20273;-78
2023/08/27 04:03:53;;;;;;;0.00;0.00;;;;;;;;;;1733280;28;20200;-78
2023/08/27 04:04:44;;;;;;;0.00;0.00;;;;;;;;;;1731835;28;20203;-78
2023/08/27 04:05:38;;;;;;;0.00;0.00;;;;;;;;;;1730754;28;20258;-78
2023/08/27 04:06:29;;;;;;;0.00;0.00;;;;;;;;;;1732468;28;20266;-78
2023/08/27 04:07:20;;;;;;;0.00;0.00;;;;;;;;;;1732891;28;20261;-78
2023/08/27 04:08:12;;;;;;;0.00;0.00;;;;;;;;;;1732563;28;20196;-78
2023/08/27 04:09:04;;;;;;;0.00;0.00;;;;;;;;;;1731652;28;20652;-78
2023/08/27 04:09:56;;;;;;;0.00;0.00;;;;;;;;;;1732504;28;20199;-78
2023/08/27 04:10:48;;;;;;;0.00;0.00;;;;;;;;;;1731834;28;20239;-78
2023/08/27 04:11:41;;;;;;;0.00;0.00;;;;;;;;;;1732287;28;20230;-77
2023/08/27 04:12:33;;;;;;;0.00;0.00;;;;;;;;;;1733259;28;20951;-79
2023/08/27 04:13:24;;;;;;;0.00;0.00;;;;;;;;;;1732452;28;20216;-78
2023/08/27 04:14:16;;;;;;;0.00;0.00;;;;;;;;;;1733304;28;20513;-79
2023/08/27 04:15:07;;;;;;;0.00;0.00;;;;;;;;;;1737252;28;20195;-78
2023/08/27 04:15:59;;;;;;;0.00;0.00;;;;;;;;;;1729438;28;20685;-78
2023/08/27 04:16:51;;;;;;;0.00;0.00;;;;;;;;;;1733439;28;20207;-78
2023/08/27 04:17:42;;;;;;;0.00;0.00;;;;;;;;;;1735910;28;20294;-78
2023/08/27 04:18:34;;;;;;;0.03;0.03;;;;;;;;;;1733322;28;20851;-78
2023/08/27 04:19:25;;;;;;;0.00;0.00;;;;;;;;;;1732948;28;20756;-78
2023/08/27 04:20:17;;;;;;;0.00;0.00;;;;;;;;;;1732794;28;20226;-80
2023/08/27 04:21:09;;;;;;;0.00;0.00;;;;;;;;;;1729557;28;20282;-79
2023/08/27 04:22:00;;;;;;;0.00;0.00;;;;;;;;;;1729053;28;20204;-78
2023/08/27 04:22:52;;;;;;;0.00;0.00;;;;;;;;;;1730982;28;20226;-78
2023/08/27 04:23:43;;;;;;;0.00;0.00;;;;;;;;;;1732694;28;20670;-79
2023/08/27 04:24:35;;;;;;;0.00;0.00;;;;;;;;;;1732505;28;20242;-78
2023/08/27 04:25:26;;;;;;;0.00;0.00;;;;;;;;;;1730945;28;20272;-79
2023/08/27 04:26:18;;;;;;;0.00;0.00;;;;;;;;;;1731083;28;20200;-78
2023/08/27 04:27:11;;;;;;;0.00;0.00;;;;;;;;;;1733742;28;20282;-78
2023/08/27 04:28:02;;;;;;;0.00;0.00;;;;;;;;;;1732228;28;20312;-78
2023/08/27 04:28:55;;;;;;;0.00;0.00;;;;;;;;;;1733348;28;20211;-78
2023/08/27 04:29:46;;;;;;;0.00;0.00;;;;;;;;;;1731548;28;20208;-77
2023/08/27 04:30:38;;;;;;;0.00;0.00;;;;;;;;;;1732528;28;20231;-78
2023/08/27 04:31:30;;;;;;;0.00;0.00;;;;;;;;;;1732092;28;20521;-78
2023/08/27 04:32:21;;;;;;;0.00;0.00;;;;;;;;;;1733281;28;20204;-78
2023/08/27 04:33:13;;;;;;;0.00;0.00;;;;;;;;;;1732779;28;21009;-77
2023/08/27 04:34:04;;;;;;;0.00;0.00;;;;;;;;;;1731827;28;20632;-78
2023/08/27 04:34:57;;;;;;;0.00;0.00;;;;;;;;;;1732296;28;20266;-78
2023/08/27 04:35:49;;;;;;;0.00;0.00;;;;;;;;;;1731489;28;20969;-78
2023/08/27 04:36:40;;;;;;;0.00;0.00;;;;;;;;;;1732729;28;20468;-78
2023/08/27 04:37:32;;;;;;;0.00;0.00;;;;;;;;;;1731523;28;20265;-78
2023/08/27 04:38:23;;;;;;;0.00;0.00;;;;;;;;;;1733613;28;20239;-79
2023/08/27 04:39:15;;;;;;;0.00;0.00;;;;;;;;;;1733769;28;20211;-79
2023/08/27 04:40:08;;;;;;;0.00;0.00;;;;;;;;;;1735073;28;20206;-79
2023/08/27 04:40:59;;;;;;;0.00;0.00;;;;;;;;;;1732955;28;20231;-79
2023/08/27 04:41:51;;;;;;;0.00;0.00;;;;;;;;;;1733437;28;20254;-78
2023/08/27 04:42:44;;;;;;;0.00;0.00;;;;;;;;;;1733470;28;20881;-79
2023/08/27 04:43:35;;;;;;;0.00;0.00;;;;;;;;;;1733330;28;20208;-79
2023/08/27 04:44:27;;;;;;;0.00;0.00;;;;;;;;;;1733277;28;20537;-79
2023/08/27 04:45:18;;;;;;;0.00;0.00;;;;;;;;;;1731417;28;20732;-78
2023/08/27 04:46:09;;;;;;;0.00;0.00;;;;;;;;;;1732938;28;20204;-78
2023/08/27 04:47:02;;;;;;;0.00;0.00;;;;;;;;;;1732939;28;20574;-78
2023/08/27 04:47:53;;;;;;;0.00;0.00;;;;;;;;;;1733110;28;20211;-79
2023/08/27 04:48:45;;;;;;;0.00;0.00;;;;;;;;;;1732983;28;20708;-79
2023/08/27 04:49:37;;;;;;;0.00;0.00;;;;;;;;;;1732428;28;20298;-78
2023/08/27 04:50:28;;;;;;;0.00;0.00;;;;;;;;;;1734858;28;20203;-80
2023/08/27 04:51:19;;;;;;;0.00;0.00;;;;;;;;;;1730704;28;20224;-79
2023/08/27 04:52:11;;;;;;;0.00;0.00;;;;;;;;;;1733174;28;20365;-79
2023/08/27 04:53:02;;;;;;;0.00;0.00;;;;;;;;;;1731708;28;20227;-77
2023/08/27 04:53:53;;;;;;;0.00;0.00;;;;;;;;;;1733124;28;20203;-79
2023/08/27 04:54:45;;;;;;;0.00;0.00;;;;;;;;;;1732882;28;20553;-80
2023/08/27 04:55:36;;;;;;;0.00;0.00;;;;;;;;;;1732096;28;20231;-80
2023/08/27 04:56:28;;;;;;;0.00;0.00;;;;;;;;;;1733586;28;20219;-80
2023/08/27 04:57:19;;;;;;;0.00;0.00;;;;;;;;;;1732398;28;20597;-80
2023/08/27 04:58:13;;;;;;;0.00;0.00;;;;;;;;;;1733431;28;20208;-79
2023/08/27 04:59:06;;;;;;;0.00;0.00;;;;;;;;;;1732984;28;20636;-79
2023/08/27 04:59:57;;;;;;;0.00;0.00;;;;;;;;;;1733004;28;20793;-79
2023/08/27 05:00:48;;;;;;;0.10;0.10;;;;;;;;;;1731159;28;20656;-80
2023/08/27 05:01:40;;;;;;;0.00;0.00;;;;;;;;;;1733043;28;20219;-79
2023/08/27 05:02:31;;;;;;;0.00;0.00;;;;;;;;;;1732110;28;20243;-79
2023/08/27 05:03:22;;;;;;;0.00;0.00;;;;;;;;;;1731867;28;20231;-79
2023/08/27 05:04:14;;;;;;;0.00;0.00;;;;;;;;;;1732707;28;20217;-78
2023/08/27 05:05:06;;;;;;;0.00;0.00;;;;;;;;;;1731240;28;20544;-79
2023/08/27 05:05:57;;;;;;;0.00;0.00;;;;;;;;;;1730815;28;20231;-79
2023/08/27 05:06:49;;;;;;;0.00;0.00;;;;;;;;;;1732877;28;20214;-79
2023/08/27 05:07:40;;;;;;;0.00;0.00;;;;;;;;;;1732541;28;20238;-79
2023/08/27 05:08:32;;;;;;;0.00;0.00;;;;;;;;;;1733806;28;20212;-78
2023/08/27 05:09:24;;;;;;;0.00;0.00;;;;;;;;;;1732417;28;20584;-78
2023/08/27 05:10:15;;;;;;;0.00;0.00;;;;;;;;;;1737280;28;20207;-79
2023/08/27 05:11:06;;;;;;;0.00;0.00;;;;;;;;;;1732219;28;20238;-80